createdAt,value
2023-05-07T00:01:39.363Z,15.12
2023-05-07T00:04:06.644Z,15.23
2023-05-07T00:06:34.443Z,15.30
2023-05-07T00:09:02.056Z,15.38
2023-05-07T00:11:30.408Z,15.46
2023-05-07T00:13:57.376Z,15.48
2023-05-07T00:16:24.401Z,15.51
2023-05-07T00:18:51.519Z,15.58
2023-05-07T00:21:18.343Z,15.59
2023-05-07T00:23:45.267Z,15.55
2023-05-07T00:26:12.158Z,15.59
2023-05-07T00:28:42.147Z,15.62
2023-05-07T00:31:09.270Z,15.51
2023-05-07T00:33:36.349Z,15.33
2023-05-07T00:36:03.891Z,15.23
2023-05-07T00:38:30.851Z,14.98
2023-05-07T00:40:57.956Z,14.92
2023-05-07T00:43:24.816Z,14.97
2023-05-07T00:45:53.285Z,15.08
2023-05-07T00:48:20.458Z,15.18
2023-05-07T00:50:47.794Z,15.26
2023-05-07T00:53:15.183Z,15.19
2023-05-07T00:55:42.608Z,15.23
2023-05-07T00:58:09.684Z,15.19
2023-05-07T01:00:36.940Z,15.08
2023-05-07T01:03:06.323Z,15.02
2023-05-07T01:05:34.102Z,15.06
2023-05-07T01:08:04.542Z,15.12
2023-05-07T01:10:31.782Z,15.13
2023-05-07T01:13:00.526Z,15.09
2023-05-07T01:15:28.049Z,15.05
2023-05-07T01:17:56.625Z,15.03
2023-05-07T01:20:31.457Z,14.83
2023-05-07T01:23:02.482Z,14.74
2023-05-07T01:25:30.177Z,14.75
2023-05-07T01:27:59.887Z,14.77
2023-05-07T01:30:31.482Z,14.63
2023-05-07T01:33:07.457Z,14.61
2023-05-07T01:35:41.695Z,14.72
2023-05-07T01:38:11.185Z,14.83
2023-05-07T01:40:39.177Z,14.88
2023-05-07T01:43:07.270Z,14.95
2023-05-07T01:45:36.739Z,14.99
2023-05-07T01:48:05.108Z,14.96
2023-05-07T01:50:34.955Z,14.93
2023-05-07T01:53:02.815Z,14.67
2023-05-07T01:55:31.639Z,14.55
2023-05-07T01:57:59.343Z,14.42
2023-05-07T02:00:28.391Z,14.38
2023-05-07T02:02:56.275Z,14.39
2023-05-07T02:05:52.546Z,14.33
2023-05-07T02:08:28.019Z,14.39
2023-05-07T02:10:56.957Z,14.42
2023-05-07T02:13:24.181Z,14.52
2023-05-07T02:15:51.192Z,14.48
2023-05-07T02:18:18.614Z,14.55
2023-05-07T02:20:45.929Z,14.64
2023-05-07T02:23:12.887Z,14.69
2023-05-07T02:25:39.905Z,14.74
2023-05-07T02:28:08.162Z,14.52
2023-05-07T02:30:46.733Z,14.38
2023-05-07T02:33:14.008Z,14.34
2023-05-07T02:35:41.777Z,14.41
2023-05-07T02:38:09.609Z,14.48
2023-05-07T02:40:36.773Z,14.42
2023-05-07T02:43:03.751Z,14.32
2023-05-07T02:45:32.596Z,14.23
2023-05-07T02:48:00.251Z,14.05
2023-05-07T02:50:27.321Z,13.94
2023-05-07T02:52:55.308Z,13.75
2023-05-07T02:55:22.498Z,13.74
2023-05-07T02:57:49.518Z,13.70
2023-05-07T03:00:19.705Z,13.70
2023-05-07T03:02:58.347Z,13.78
2023-05-07T03:05:25.654Z,13.82
2023-05-07T03:07:56.405Z,13.72
2023-05-07T03:10:23.588Z,13.67
2023-05-07T03:12:50.616Z,13.70
2023-05-07T03:15:18.765Z,13.78
2023-05-07T03:17:45.899Z,13.82
2023-05-07T03:20:14.564Z,13.78
2023-05-07T03:22:42.788Z,13.69
2023-05-07T03:25:11.671Z,13.79
2023-05-07T03:27:38.865Z,13.91
2023-05-07T03:30:08.012Z,14.02
2023-05-07T03:32:35.384Z,14.14
2023-05-07T03:35:06.759Z,14.17
2023-05-07T03:37:36.453Z,14.16
2023-05-07T03:40:04.002Z,13.94
2023-05-07T03:42:34.491Z,13.76
2023-05-07T03:45:01.492Z,13.63
2023-05-07T03:47:30.856Z,13.54
2023-05-07T03:49:57.822Z,13.51
2023-05-07T03:52:26.043Z,13.46
2023-05-07T03:54:56.478Z,13.50
2023-05-07T03:57:23.545Z,13.56
2023-05-07T03:59:50.588Z,13.67
2023-05-07T04:02:18.786Z,13.78
2023-05-07T04:04:46.376Z,13.88
2023-05-07T04:07:13.284Z,13.97
2023-05-07T04:10:00.379Z,13.99
2023-05-07T04:12:28.922Z,14.04
2023-05-07T04:14:55.796Z,14.08
2023-05-07T04:17:24.646Z,14.16
2023-05-07T04:19:51.590Z,14.17
2023-05-07T04:22:19.119Z,14.10
2023-05-07T04:24:46.262Z,14.05
2023-05-07T04:27:13.832Z,14.05
2023-05-07T04:29:42.496Z,14.07
2023-05-07T04:32:12.270Z,14.15
2023-05-07T04:34:40.528Z,14.21
2023-05-07T04:37:07.970Z,14.24
2023-05-07T04:39:34.864Z,14.33
2023-05-07T04:42:01.902Z,14.31
2023-05-07T04:44:29.065Z,14.31
2023-05-07T04:46:57.696Z,14.37
2023-05-07T04:49:25.380Z,14.54
2023-05-07T04:51:54.641Z,14.77
2023-05-07T04:54:23.343Z,14.88
2023-05-07T04:56:50.352Z,15.11
2023-05-07T04:59:17.367Z,15.62
2023-05-07T05:01:44.633Z,16.27
2023-05-07T05:04:13.304Z,16.76
2023-05-07T05:06:41.201Z,17.04
2023-05-07T05:09:08.830Z,16.69
2023-05-07T05:11:35.652Z,16.46
2023-05-07T05:14:02.670Z,16.44
2023-05-07T05:16:29.632Z,16.66
2023-05-07T05:18:56.580Z,17.18
2023-05-07T05:21:25.059Z,17.34
2023-05-07T05:23:57.096Z,17.29
2023-05-07T05:26:25.930Z,17.33
2023-05-07T05:28:52.818Z,17.32
2023-05-07T05:31:22.423Z,17.23
2023-05-07T05:33:50.750Z,17.37
2023-05-07T05:36:18.062Z,17.61
2023-05-07T05:38:48.226Z,17.70
2023-05-07T05:41:15.082Z,17.62
2023-05-07T05:43:42.270Z,17.53
2023-05-07T05:46:10.105Z,17.72
2023-05-07T05:48:37.281Z,17.63
2023-05-07T05:51:05.476Z,17.44
2023-05-07T05:53:32.285Z,17.58
2023-05-07T05:56:00.734Z,18.00
2023-05-07T05:58:28.139Z,18.26
2023-05-07T06:01:00.530Z,18.93
2023-05-07T06:03:29.016Z,19.57
2023-05-07T06:05:58.016Z,19.77
2023-05-07T06:08:25.066Z,19.96
2023-05-07T06:10:52.681Z,20.12
2023-05-07T06:13:21.146Z,19.77
2023-05-07T06:15:48.193Z,19.60
2023-05-07T06:18:15.204Z,20.33
2023-05-07T06:20:42.415Z,21.15
2023-05-07T06:23:17.785Z,21.78
2023-05-07T06:25:49.640Z,22.09
2023-05-07T06:28:16.866Z,22.73
2023-05-07T06:30:45.883Z,23.86
2023-05-07T06:33:13.297Z,24.75
2023-05-07T06:35:40.255Z,24.89
2023-05-07T06:38:07.260Z,23.72
2023-05-07T06:40:34.204Z,22.79
2023-05-07T06:43:01.688Z,22.48
2023-05-07T06:45:36.168Z,22.83
2023-05-07T06:48:06.313Z,23.79
2023-05-07T06:50:42.560Z,24.69
2023-05-07T06:53:09.511Z,24.86
2023-05-07T06:55:36.414Z,24.44
2023-05-07T06:58:03.499Z,25.50
2023-05-07T07:00:30.814Z,26.30
2023-05-07T07:02:58.337Z,26.87
2023-05-07T07:05:29.378Z,26.92
2023-05-07T07:07:57.399Z,26.83
2023-05-07T07:10:24.858Z,27.39
2023-05-07T07:12:52.796Z,27.73
2023-05-07T07:15:21.217Z,28.52
2023-05-07T07:17:49.459Z,28.25
2023-05-07T07:20:16.762Z,28.45
2023-05-07T07:22:46.961Z,27.99
2023-05-07T07:25:15.221Z,28.16
2023-05-07T07:27:42.165Z,28.51
2023-05-07T07:30:10.897Z,28.12
2023-05-07T07:32:40.927Z,27.35
2023-05-07T07:35:09.512Z,27.23
2023-05-07T07:37:37.815Z,27.50
2023-05-07T07:40:08.146Z,28.09
2023-05-07T07:42:36.136Z,27.72
2023-05-07T07:45:03.617Z,28.54
2023-05-07T07:47:34.123Z,29.36
2023-05-07T07:50:01.012Z,29.70
2023-05-07T07:52:28.485Z,29.92
2023-05-07T07:54:55.538Z,29.88
2023-05-07T07:57:24.708Z,29.89
2023-05-07T07:59:52.067Z,29.50
2023-05-07T08:02:20.783Z,29.15
2023-05-07T08:04:49.743Z,28.42
2023-05-07T08:07:17.843Z,28.56
2023-05-07T08:09:46.182Z,28.48
2023-05-07T08:12:14.362Z,28.30
2023-05-07T08:14:43.514Z,27.76
2023-05-07T08:17:11.609Z,27.83
2023-05-07T08:19:39.087Z,27.72
2023-05-07T08:22:08.537Z,27.97
2023-05-07T08:24:35.515Z,27.90
2023-05-07T08:27:02.441Z,28.17
2023-05-07T08:29:29.661Z,27.90
2023-05-07T08:31:58.016Z,27.85
2023-05-07T08:34:24.965Z,28.08
2023-05-07T08:36:54.838Z,28.18
2023-05-07T08:39:24.040Z,28.26
2023-05-07T08:41:56.675Z,28.20
2023-05-07T08:44:29.602Z,27.84
2023-05-07T08:47:01.825Z,27.70
2023-05-07T08:49:30.870Z,27.53
2023-05-07T08:51:58.010Z,27.46
2023-05-07T08:54:27.082Z,27.65
2023-05-07T08:56:54.657Z,27.77
2023-05-07T08:59:21.725Z,28.06
2023-05-07T09:01:48.733Z,28.18
2023-05-07T09:04:17.944Z,28.60
2023-05-07T09:06:46.464Z,28.67
2023-05-07T09:09:18.301Z,28.33
2023-05-07T09:11:45.419Z,27.65
2023-05-07T09:14:14.380Z,27.90
2023-05-07T09:16:44.036Z,27.93
2023-05-07T09:19:11.090Z,28.06
2023-05-07T09:21:45.098Z,28.06
2023-05-07T09:24:15.983Z,27.97
2023-05-07T09:26:44.065Z,27.35
2023-05-07T09:29:13.197Z,27.35
2023-05-07T09:31:41.075Z,27.67
2023-05-07T09:34:11.066Z,27.90
2023-05-07T09:36:41.465Z,28.27
2023-05-07T09:39:10.283Z,28.43
2023-05-07T09:41:45.664Z,28.59
2023-05-07T09:44:29.192Z,28.79
2023-05-07T09:47:00.507Z,28.95
2023-05-07T09:49:36.571Z,29.17
2023-05-07T09:52:07.890Z,29.32
2023-05-07T09:54:39.059Z,29.53
2023-05-07T09:57:10.109Z,29.58
2023-05-07T09:59:38.997Z,28.64
2023-05-07T10:02:11.512Z,29.09
2023-05-07T10:04:47.790Z,29.45
2023-05-07T10:07:18.222Z,29.70
2023-05-07T10:09:49.178Z,29.61
2023-05-07T10:12:27.826Z,29.85
2023-05-07T10:15:23.542Z,29.58
2023-05-07T10:18:03.401Z,29.39
2023-05-07T10:20:38.111Z,29.87
2023-05-07T10:23:10.936Z,30.39
2023-05-07T10:25:44.576Z,30.38
2023-05-07T10:28:22.301Z,30.66
2023-05-07T10:31:09.305Z,30.91
2023-05-07T10:33:45.811Z,30.93
2023-05-07T10:36:14.504Z,31.01
2023-05-07T10:38:41.821Z,31.26
2023-05-07T10:41:11.520Z,31.44
2023-05-07T10:43:45.001Z,31.41
2023-05-07T10:46:21.888Z,31.44
2023-05-07T10:49:11.590Z,31.70
2023-05-07T10:51:45.057Z,31.37
2023-05-07T10:54:23.510Z,31.04
2023-05-07T10:57:36.671Z,31.97
2023-05-07T11:00:43.041Z,32.71
2023-05-07T11:03:14.794Z,32.45
2023-05-07T11:06:14.425Z,29.32
2023-05-07T11:08:57.576Z,28.46
2023-05-07T11:11:48.455Z,30.19
2023-05-07T11:14:47.472Z,31.28
2023-05-07T11:17:31.722Z,28.20
2023-05-07T11:20:05.909Z,29.87
2023-05-07T11:22:44.656Z,30.53
2023-05-07T11:25:27.052Z,31.24
2023-05-07T11:28:06.978Z,32.21
2023-05-07T11:30:36.383Z,29.98
2023-05-07T11:33:07.691Z,27.68
2023-05-07T11:35:37.138Z,26.81
2023-05-07T11:38:06.173Z,27.64
2023-05-07T11:40:35.136Z,29.17
2023-05-07T11:43:11.817Z,29.67
2023-05-07T11:45:40.462Z,30.32
2023-05-07T11:48:07.897Z,30.34
2023-05-07T11:50:35.016Z,30.53
2023-05-07T11:53:26.677Z,30.15
2023-05-07T11:55:54.170Z,30.21
2023-05-07T11:58:23.874Z,30.00
2023-05-07T12:00:56.012Z,29.74
2023-05-07T12:03:25.525Z,29.89
2023-05-07T12:05:54.621Z,29.94
2023-05-07T12:08:22.961Z,29.95
2023-05-07T12:10:51.273Z,29.85
2023-05-07T12:13:19.275Z,29.62
2023-05-07T12:17:02.259Z,29.70
2023-05-07T12:19:32.025Z,27.98
2023-05-07T12:21:59.529Z,28.18
2023-05-07T12:24:26.904Z,28.53
2023-05-07T12:26:54.271Z,28.61
2023-05-07T12:29:22.960Z,27.09
2023-05-07T12:31:51.104Z,25.49
2023-05-07T12:34:18.267Z,26.37
2023-05-07T12:36:49.283Z,26.90
2023-05-07T12:39:17.716Z,27.22
2023-05-07T12:41:55.212Z,26.84
2023-05-07T12:44:24.207Z,25.77
2023-05-07T12:46:51.804Z,25.23
2023-05-07T12:49:25.418Z,25.49
2023-05-07T12:51:55.081Z,25.94
2023-05-07T12:54:32.144Z,25.86
2023-05-07T12:57:03.672Z,26.06
2023-05-07T12:59:35.480Z,26.24
2023-05-07T13:02:03.283Z,26.06
2023-05-07T13:04:30.736Z,25.26
2023-05-07T13:06:59.142Z,25.12
2023-05-07T13:09:27.231Z,25.02
2023-05-07T13:11:54.529Z,25.17
2023-05-07T13:14:21.968Z,25.13
2023-05-07T13:16:49.452Z,24.84
2023-05-07T13:19:16.998Z,25.16
2023-05-07T13:21:44.176Z,24.74
2023-05-07T13:24:15.683Z,24.73
2023-05-07T13:26:45.963Z,24.73
2023-05-07T13:29:13.415Z,24.61
2023-05-07T13:36:07.055Z,24.08
2023-05-07T13:38:33.977Z,24.10
2023-05-07T13:41:04.908Z,24.09
2023-05-07T13:43:32.211Z,23.99
2023-05-07T13:45:59.353Z,23.76
2023-05-07T13:48:26.568Z,22.30
2023-05-07T13:50:53.708Z,21.41
2023-05-07T13:53:23.258Z,20.91
2023-05-07T13:55:51.868Z,20.63
2023-05-07T13:59:35.200Z,20.90
2023-05-07T14:02:03.599Z,20.79
2023-05-07T14:04:31.778Z,19.79
2023-05-07T14:06:59.322Z,18.71
2023-05-07T14:09:26.300Z,18.23
2023-05-07T14:11:53.325Z,17.85
2023-05-07T14:14:21.929Z,17.62
2023-05-07T14:16:50.921Z,17.80
2023-05-07T14:19:19.807Z,17.85
2023-05-07T14:21:49.206Z,17.87
2023-05-07T14:24:27.177Z,17.92
2023-05-07T14:27:01.878Z,18.00
2023-05-07T14:29:29.293Z,17.92
2023-05-07T14:31:56.470Z,17.61
2023-05-07T14:34:25.194Z,17.55
2023-05-07T14:36:52.174Z,17.34
2023-05-07T14:40:11.183Z,17.31
2023-05-07T14:42:38.341Z,17.42
2023-05-07T14:45:07.438Z,17.53
2023-05-07T14:47:34.835Z,17.54
2023-05-07T14:50:04.302Z,17.54
2023-05-07T14:52:31.201Z,17.48
2023-05-07T14:54:58.233Z,17.50
2023-05-07T14:57:25.354Z,17.47
2023-05-07T14:59:52.351Z,17.40
2023-05-07T15:02:21.384Z,17.22
2023-05-07T15:04:48.620Z,17.10
2023-05-07T15:07:17.115Z,17.20
2023-05-07T15:09:45.445Z,17.28
2023-05-07T15:12:14.818Z,17.36
2023-05-07T15:14:42.601Z,17.41
2023-05-07T15:17:09.820Z,17.50
2023-05-07T15:19:37.255Z,17.55
2023-05-07T15:22:04.615Z,17.56
2023-05-07T15:24:33.146Z,17.62
2023-05-07T15:27:00.177Z,17.71
2023-05-07T15:29:29.689Z,17.78
2023-05-07T15:31:58.947Z,17.82
2023-05-07T15:34:25.853Z,17.90
2023-05-07T15:36:52.801Z,17.99
2023-05-07T15:39:19.695Z,18.02
2023-05-07T15:41:48.803Z,18.09
2023-05-07T15:44:15.671Z,17.96
2023-05-07T15:46:42.817Z,17.84
2023-05-07T15:49:12.233Z,17.92
2023-05-07T15:51:39.432Z,17.89
2023-05-07T15:54:06.624Z,17.85
2023-05-07T15:56:33.592Z,17.79
2023-05-07T15:59:02.205Z,17.83
2023-05-07T16:01:32.094Z,17.78
2023-05-07T16:03:59.205Z,17.61
2023-05-07T16:06:26.233Z,17.56
2023-05-07T16:08:53.596Z,17.56
2023-05-07T16:11:20.656Z,17.65
2023-05-07T16:13:47.635Z,17.70
2023-05-07T16:16:16.430Z,17.81
2023-05-07T16:18:43.232Z,17.71
2023-05-07T16:21:10.306Z,17.67
2023-05-07T16:23:37.952Z,17.62
2023-05-07T16:26:05.172Z,17.52
2023-05-07T16:28:32.284Z,17.46
2023-05-07T16:31:00.990Z,17.32
2023-05-07T16:33:29.597Z,17.32
2023-05-07T16:35:57.257Z,17.43
2023-05-07T16:38:24.575Z,17.52
2023-05-07T16:40:51.585Z,17.64
2023-05-07T16:43:18.776Z,17.60
2023-05-07T16:45:46.204Z,17.65
2023-05-07T16:48:13.386Z,17.74
2023-05-07T16:50:41.930Z,17.63
2023-05-07T16:53:08.917Z,17.50
2023-05-07T16:55:38.138Z,17.61
2023-05-07T16:58:06.822Z,17.61
2023-05-07T17:00:48.559Z,17.65
2023-05-07T17:03:18.225Z,17.65
2023-05-07T17:05:46.895Z,17.65
2023-05-07T17:08:15.144Z,17.67
2023-05-07T17:10:56.822Z,17.74
2023-05-07T17:13:24.417Z,17.82
2023-05-07T17:15:51.428Z,17.82
2023-05-07T17:18:18.427Z,17.83
2023-05-07T17:20:46.820Z,17.86
2023-05-07T17:23:13.777Z,17.84
2023-05-07T17:25:41.015Z,17.77
2023-05-07T17:28:08.628Z,17.75
2023-05-07T17:30:35.553Z,17.70
2023-05-07T17:33:16.702Z,17.65
2023-05-07T17:35:48.943Z,17.66
2023-05-07T17:38:15.997Z,17.63
2023-05-07T17:40:43.400Z,17.60
2023-05-07T17:43:10.299Z,17.65
2023-05-07T17:45:37.706Z,17.64
2023-05-07T17:48:05.334Z,17.62
2023-05-07T17:50:32.253Z,17.59
2023-05-07T17:53:00.479Z,17.62
2023-05-07T17:55:27.494Z,17.60
2023-05-07T17:57:54.703Z,17.63
2023-05-07T18:00:21.843Z,17.62
2023-05-07T18:02:51.843Z,17.63
2023-05-07T18:05:18.810Z,17.72
2023-05-07T18:07:45.979Z,17.70
2023-05-07T18:10:14.855Z,17.73
2023-05-07T18:12:44.199Z,17.76
2023-05-07T18:15:12.496Z,17.70
2023-05-07T18:17:40.304Z,17.63
2023-05-07T18:20:08.825Z,17.60
2023-05-07T18:22:36.143Z,17.56
2023-05-07T18:25:03.623Z,17.54
2023-05-07T18:27:31.868Z,17.53
2023-05-07T18:29:58.808Z,17.53
2023-05-07T18:32:25.896Z,17.51
2023-05-07T18:34:54.378Z,17.56
2023-05-07T18:37:23.452Z,17.59
2023-05-07T18:39:52.179Z,17.56
2023-05-07T18:42:21.761Z,17.48
2023-05-07T18:44:50.356Z,17.44
2023-05-07T18:47:17.363Z,17.43
2023-05-07T18:49:45.376Z,17.41
2023-05-07T18:52:12.996Z,17.44
2023-05-07T18:54:40.302Z,17.47
2023-05-07T18:57:07.269Z,17.45
2023-05-07T18:59:34.391Z,17.46
2023-05-07T19:02:02.691Z,17.48
2023-05-07T19:04:30.225Z,17.51
2023-05-07T19:06:57.211Z,17.42
2023-05-07T19:09:24.286Z,17.39
2023-05-07T19:11:51.643Z,17.39
2023-05-07T19:14:18.737Z,17.40
2023-05-07T19:16:46.558Z,17.34
2023-05-07T19:19:15.319Z,17.28
2023-05-07T19:21:42.507Z,17.27
2023-05-07T19:24:09.377Z,17.31
2023-05-07T19:26:36.407Z,17.32
2023-05-07T19:29:16.344Z,17.33
2023-05-07T19:31:44.553Z,17.29
2023-05-07T19:34:11.538Z,17.25
2023-05-07T19:36:39.851Z,17.27
2023-05-07T19:39:06.813Z,17.27
2023-05-07T19:41:35.926Z,17.26
2023-05-07T19:44:02.891Z,17.32
2023-05-07T19:46:29.779Z,17.35
2023-05-07T19:48:56.820Z,17.38
2023-05-07T19:51:23.975Z,17.39
2023-05-07T19:53:52.279Z,17.36
2023-05-07T19:56:19.536Z,17.08
2023-05-07T19:58:46.725Z,16.41
2023-05-07T20:01:13.806Z,16.43
2023-05-07T20:03:41.774Z,16.21
2023-05-07T20:06:08.897Z,16.22
2023-05-07T20:08:36.121Z,16.37
2023-05-07T20:11:04.437Z,16.37
2023-05-07T20:13:31.413Z,16.38
2023-05-07T20:15:59.330Z,16.52
2023-05-07T20:18:28.665Z,16.47
2023-05-07T20:20:56.209Z,16.49
2023-05-07T20:23:23.164Z,16.46
2023-05-07T20:25:50.402Z,16.28
2023-05-07T20:28:20.472Z,16.36
2023-05-07T20:30:47.376Z,16.32
2023-05-07T20:33:14.299Z,16.31
2023-05-07T20:35:41.623Z,16.18
2023-05-07T20:38:08.719Z,16.00
2023-05-07T20:40:36.150Z,15.97
2023-05-07T20:43:03.326Z,15.90
2023-05-07T20:45:32.212Z,15.82
2023-05-07T20:48:00.299Z,15.82
2023-05-07T20:50:27.912Z,15.97
2023-05-07T20:52:54.893Z,16.12
2023-05-07T20:55:22.048Z,16.31
2023-05-07T20:57:49.293Z,16.47
2023-05-07T21:04:25.150Z,16.76
2023-05-07T21:06:52.323Z,16.83
2023-05-07T21:09:20.120Z,16.88
2023-05-07T21:11:47.859Z,16.92
2023-05-07T21:14:14.715Z,16.84
2023-05-07T21:16:41.717Z,16.73
2023-05-07T21:19:08.908Z,16.77
2023-05-07T21:21:37.531Z,16.85
2023-05-07T21:24:06.660Z,16.93
2023-05-07T21:26:33.604Z,16.95
2023-05-07T21:29:00.652Z,16.94
2023-05-07T21:31:27.691Z,16.91
2023-05-07T21:33:54.898Z,16.98
2023-05-07T21:36:48.647Z,17.01
2023-05-07T21:39:15.688Z,16.98
2023-05-07T21:41:42.764Z,17.00
2023-05-07T21:44:17.049Z,17.02
2023-05-07T21:46:44.260Z,17.05
2023-05-07T21:49:11.220Z,17.08
2023-05-07T21:51:38.283Z,17.07
2023-05-07T21:54:06.505Z,17.05
2023-05-07T21:56:33.537Z,16.94
2023-05-07T21:59:00.440Z,16.94
2023-05-07T22:01:27.538Z,16.90
2023-05-07T22:03:54.687Z,16.89
2023-05-07T22:06:22.028Z,16.88
2023-05-07T22:08:49.082Z,16.86
2023-05-07T22:11:17.449Z,16.85
2023-05-07T22:13:44.936Z,16.71
2023-05-07T22:16:16.687Z,16.67
2023-05-07T22:18:43.830Z,16.62
2023-05-07T22:21:11.322Z,16.66
2023-05-07T22:23:38.545Z,16.76
2023-05-07T22:26:10.975Z,16.78
2023-05-07T22:28:39.988Z,16.81
2023-05-07T22:31:06.946Z,16.84
2023-05-07T22:33:34.065Z,16.87
2023-05-07T22:36:01.291Z,16.83
2023-05-07T22:38:28.202Z,16.88
2023-05-07T22:40:55.199Z,16.94
2023-05-07T22:43:22.074Z,16.95
2023-05-07T22:45:58.767Z,16.97
2023-05-07T22:48:25.902Z,16.96
2023-05-07T22:50:52.957Z,16.99
2023-05-07T22:53:20.092Z,16.98
2023-05-07T22:55:47.133Z,16.97
2023-05-07T22:58:14.097Z,16.97
2023-05-07T23:00:41.723Z,16.99
2023-05-07T23:03:10.440Z,16.89
2023-05-07T23:05:37.621Z,16.98
2023-05-07T23:08:05.137Z,17.02
2023-05-07T23:10:32.085Z,16.96
2023-05-07T23:12:59.103Z,16.95
2023-05-07T23:15:26.005Z,17.00
2023-05-07T23:17:52.888Z,16.97
2023-05-07T23:20:22.256Z,16.97
2023-05-07T23:22:49.846Z,16.90
2023-05-07T23:25:17.104Z,16.78
2023-05-07T23:27:44.026Z,16.63
2023-05-07T23:30:12.809Z,16.63
2023-05-07T23:32:39.953Z,16.67
2023-05-07T23:35:08.435Z,16.67
2023-05-07T23:37:36.747Z,16.72
2023-05-07T23:40:04.753Z,16.70
2023-05-07T23:42:32.121Z,16.65
2023-05-07T23:49:00.285Z,16.44
2023-05-07T23:51:27.388Z,16.38
2023-05-07T23:53:55.660Z,16.41
2023-05-07T23:56:22.522Z,16.40
2023-05-07T23:58:49.429Z,16.43
